Time;durP1;ratioP1;P1;durP2;ratioP2;P2;SDS_P1;SDS_P2;PMS_P1;PMS_P2;Temp;Humidity;BMP_temperature;BMP_pressure;BME280_temperature;BME280_humidity;BME280_pressure;Samples;Min_cycle;Max_cycle;Signal;HPM_P1;HPM_P2
2022/08/08 00:01:02;;;;;;;;;;;14.90;99.90;;;;;;4911528;29;20395;-61
2022/08/08 00:03:38;;;;;;;;;;;14.90;99.90;;;;;;4926958;29;20292;-61
2022/08/08 00:06:08;;;;;;;;;;;14.90;99.90;;;;;;4912718;29;19954;-62
2022/08/08 00:08:50;;;;;;;;;;;14.80;99.90;;;;;;4912496;29;19931;-60
2022/08/08 00:11:32;;;;;;;;;;;14.80;99.90;;;;;;4912357;29;19927;-60
2022/08/08 00:14:22;;;;;;;;;;;14.80;99.90;;;;;;4908262;29;19934;-59
2022/08/08 00:17:28;;;;;;;;;;;14.70;99.90;;;;;;4912290;29;20291;-60
2022/08/08 00:20:20;;;;;;;;;;;14.70;99.90;;;;;;4912602;29;19927;-60
2022/08/08 00:22:53;;;;;;;;;;;14.70;99.90;;;;;;4912450;29;19934;-58
2022/08/08 00:25:23;;;;;;;;;;;14.60;99.90;;;;;;4912512;29;20084;-60
2022/08/08 00:28:06;;;;;;;;;;;14.60;99.90;;;;;;4915751;29;20395;-57
2022/08/08 00:30:56;;;;;;;;;;;14.50;99.90;;;;;;4916230;29;19934;-58
2022/08/08 00:33:53;;;;;;;;;;;14.50;99.90;;;;;;4915894;29;19943;-61
2022/08/08 00:36:50;;;;;;;;;;;14.50;99.90;;;;;;4915831;29;20295;-60
2022/08/08 00:39:30;;;;;;;;;;;14.50;99.90;;;;;;4915728;29;19935;-59
2022/08/08 00:42:26;;;;;;;;;;;14.40;99.90;;;;;;4916139;29;19927;-59
2022/08/08 00:45:14;;;;;;;;;;;14.40;99.90;;;;;;4914383;29;19938;-62
2022/08/08 00:47:56;;;;;;;;;;;14.40;99.90;;;;;;4915680;29;20379;-61
2022/08/08 00:50:52;;;;;;;;;;;14.30;99.90;;;;;;4898269;29;20379;-61
2022/08/08 00:53:20;;;;;;;;;;;14.30;99.90;;;;;;4915536;29;20327;-61
2022/08/08 00:55:51;;;;;;;;;;;14.30;99.90;;;;;;4915695;29;19934;-62
2022/08/08 00:58:39;;;;;;;;;;;14.30;99.90;;;;;;4909862;29;19935;-61
2022/08/08 01:01:33;;;;;;;;;;;14.20;99.90;;;;;;4914173;29;19949;-61
2022/08/08 01:04:17;;;;;;;;;;;14.20;99.90;;;;;;4910732;29;19931;-61
2022/08/08 01:07:04;;;;;;;;;;;14.20;99.90;;;;;;4913185;29;19931;-59
2022/08/08 01:09:58;;;;;;;;;;;14.20;99.90;;;;;;4914269;29;19949;-59
2022/08/08 01:12:45;;;;;;;;;;;14.20;99.90;;;;;;4910275;29;19928;-60
2022/08/08 01:15:24;;;;;;;;;;;14.20;99.90;;;;;;4913937;29;19935;-58
2022/08/08 01:18:27;;;;;;;;;;;14.10;99.90;;;;;;4914010;29;19939;-61
2022/08/08 01:21:18;;;;;;;;;;;14.10;99.90;;;;;;4913948;29;19927;-62
2022/08/08 01:24:20;;;;;;;;;;;14.10;99.90;;;;;;4913548;29;19927;-61
2022/08/08 01:26:51;;;;;;;;;;;14.10;99.90;;;;;;4913929;29;19957;-61
2022/08/08 01:29:53;;;;;;;;;;;14.10;99.90;;;;;;4911750;29;20292;-57
2022/08/08 01:32:58;;;;;;;;;;;14.10;99.90;;;;;;4874952;29;19934;-62
2022/08/08 01:35:26;;;;;;;;;;;14.00;99.90;;;;;;4882467;29;19928;-60
2022/08/08 01:38:20;;;;;;;;;;;14.00;99.90;;;;;;4902174;29;19931;-61
2022/08/08 01:41:08;;;;;;;;;;;14.00;99.90;;;;;;4916666;29;19938;-60
2022/08/08 01:43:48;;;;;;;;;;;13.90;99.90;;;;;;4917906;29;19928;-62
2022/08/08 01:46:44;;;;;;;;;;;13.90;99.90;;;;;;4915107;29;19928;-60
2022/08/08 01:49:42;;;;;;;;;;;13.90;99.90;;;;;;4916600;29;19950;-61
2022/08/08 01:52:12;;;;;;;;;;;13.80;99.90;;;;;;4915877;29;20461;-60
2022/08/08 01:55:02;;;;;;;;;;;13.80;99.90;;;;;;4916629;29;19934;-61
2022/08/08 01:58:07;;;;;;;;;;;13.80;99.90;;;;;;4929208;29;20110;-60
2022/08/08 02:00:43;;;;;;;;;;;13.80;99.90;;;;;;4900451;29;19927;-60
2022/08/08 02:03:16;;;;;;;;;;;13.70;99.90;;;;;;4916421;29;19933;-59
2022/08/08 02:06:04;;;;;;;;;;;13.70;99.90;;;;;;4915796;29;20433;-57
2022/08/08 02:08:59;;;;;;;;;;;13.70;99.90;;;;;;4916217;29;19927;-56
2022/08/08 02:11:37;;;;;;;;;;;13.70;99.90;;;;;;4916220;29;19934;-57
2022/08/08 02:14:41;;;;;;;;;;;13.70;99.90;;;;;;4915993;29;20402;-56
2022/08/08 02:17:25;;;;;;;;;;;13.60;99.90;;;;;;4915988;29;19927;-59
2022/08/08 02:20:17;;;;;;;;;;;13.60;99.90;;;;;;4916023;29;19927;-60
2022/08/08 02:23:19;;;;;;;;;;;13.60;99.90;;;;;;4916099;29;19930;-60
2022/08/08 02:25:59;;;;;;;;;;;13.60;99.90;;;;;;4915827;29;19927;-61
2022/08/08 02:28:40;;;;;;;;;;;13.50;99.90;;;;;;4916008;29;19928;-58
2022/08/08 02:31:20;;;;;;;;;;;13.50;99.90;;;;;;4915854;29;19927;-60
2022/08/08 02:34:14;;;;;;;;;;;13.50;99.90;;;;;;4931533;29;19927;-61
2022/08/08 02:37:21;;;;;;;;;;;13.50;99.90;;;;;;4915702;29;19931;-61
2022/08/08 02:40:21;;;;;;;;;;;13.50;99.90;;;;;;4931501;29;19927;-61
2022/08/08 02:43:07;;;;;;;;;;;13.50;99.90;;;;;;4915855;29;19927;-61
2022/08/08 02:45:55;;;;;;;;;;;13.40;99.90;;;;;;4931357;29;19934;-60
2022/08/08 02:48:46;;;;;;;;;;;13.40;99.90;;;;;;4915392;29;19927;-61
2022/08/08 02:51:21;;;;;;;;;;;13.40;99.90;;;;;;4931168;29;19927;-60
2022/08/08 02:54:12;;;;;;;;;;;13.30;99.90;;;;;;4915472;29;19927;-62
2022/08/08 02:56:58;;;;;;;;;;;13.30;99.90;;;;;;4915530;29;19927;-61
2022/08/08 02:59:45;;;;;;;;;;;13.30;99.90;;;;;;4930789;29;20502;-59
2022/08/08 03:02:33;;;;;;;;;;;13.30;99.90;;;;;;4916564;29;19934;-61
2022/08/08 03:05:11;;;;;;;;;;;13.30;99.90;;;;;;4931209;29;19934;-62
2022/08/08 03:07:59;;;;;;;;;;;13.30;99.90;;;;;;4915377;29;19927;-62
2022/08/08 03:10:47;;;;;;;;;;;13.30;99.90;;;;;;4930929;29;20390;-61
2022/08/08 03:13:27;;;;;;;;;;;13.30;99.90;;;;;;4930950;29;19935;-60
2022/08/08 03:16:14;;;;;;;;;;;13.30;99.90;;;;;;4915227;29;19942;-62
2022/08/08 03:19:14;;;;;;;;;;;13.30;99.90;;;;;;4914973;29;19927;-56
2022/08/08 03:21:46;;;;;;;;;;;13.30;99.90;;;;;;4915095;29;20379;-58
2022/08/08 03:24:27;;;;;;;;;;;13.40;99.90;;;;;;4930831;29;19927;-57
2022/08/08 03:27:01;;;;;;;;;;;13.40;99.90;;;;;;4915074;29;19934;-59
2022/08/08 03:29:34;;;;;;;;;;;13.40;99.90;;;;;;4915073;29;19927;-58
2022/08/08 03:35:14;;;;;;;;;;;13.40;99.90;;;;;;4915004;29;19927;-61
2022/08/08 03:37:44;;;;;;;;;;;13.40;99.90;;;;;;4914834;29;19927;-61
2022/08/08 03:40:31;;;;;;;;;;;13.40;99.90;;;;;;4916145;29;20326;-62
2022/08/08 03:43:09;;;;;;;;;;;13.40;99.90;;;;;;4914847;29;19927;-61
2022/08/08 03:45:46;;;;;;;;;;;13.30;99.90;;;;;;4914926;29;19934;-60
2022/08/08 03:48:35;;;;;;;;;;;13.30;99.90;;;;;;4899049;29;20008;-60
2022/08/08 03:51:25;;;;;;;;;;;13.30;99.90;;;;;;4915462;29;19934;-59
2022/08/08 03:54:13;;;;;;;;;;;13.20;99.90;;;;;;4914759;29;19938;-61
2022/08/08 03:57:01;;;;;;;;;;;13.30;99.90;;;;;;4914775;29;19927;-58
2022/08/08 03:59:49;;;;;;;;;;;13.20;99.90;;;;;;4915804;29;19927;-60
2022/08/08 04:02:38;;;;;;;;;;;13.20;99.90;;;;;;4919551;29;19934;-55
2022/08/08 04:05:19;;;;;;;;;;;13.10;99.90;;;;;;4918503;29;19927;-61
2022/08/08 04:07:59;;;;;;;;;;;13.10;99.90;;;;;;4918483;29;19927;-56
2022/08/08 04:10:30;;;;;;;;;;;13.00;99.90;;;;;;4918498;29;19934;-59
2022/08/08 04:13:02;;;;;;;;;;;13.00;99.90;;;;;;4918571;29;20306;-56
2022/08/08 04:15:46;;;;;;;;;;;13.00;99.90;;;;;;4915936;29;19927;-59
2022/08/08 04:18:32;;;;;;;;;;;12.90;99.90;;;;;;4918177;29;20299;-61
2022/08/08 04:21:18;;;;;;;;;;;12.90;99.90;;;;;;4918230;29;19927;-59
2022/08/08 04:23:54;;;;;;;;;;;12.90;99.90;;;;;;4918111;29;19938;-61
2022/08/08 04:26:43;;;;;;;;;;;12.90;99.90;;;;;;4918115;29;19951;-61
2022/08/08 04:29:25;;;;;;;;;;;12.90;99.90;;;;;;4918078;29;19927;-65
2022/08/08 04:31:53;;;;;;;;;;;12.90;99.90;;;;;;4919397;29;19935;-62
2022/08/08 04:34:26;;;;;;;;;;;12.90;99.90;;;;;;4919372;29;19927;-59
2022/08/08 04:36:59;;;;;;;;;;;12.90;99.90;;;;;;4933745;29;19927;-61
2022/08/08 04:39:30;;;;;;;;;;;12.90;99.90;;;;;;4901966;29;19935;-60
2022/08/08 04:42:18;;;;;;;;;;;12.90;99.90;;;;;;4904900;29;19934;-58
2022/08/08 04:44:46;;;;;;;;;;;13.00;99.90;;;;;;4918044;29;19935;-60
2022/08/08 04:47:15;;;;;;;;;;;13.00;99.90;;;;;;4916353;29;19927;-62
2022/08/08 04:49:43;;;;;;;;;;;13.00;99.90;;;;;;4915002;29;19927;-60
2022/08/08 04:52:34;;;;;;;;;;;13.00;99.90;;;;;;4898517;29;20008;-60
2022/08/08 04:55:12;;;;;;;;;;;13.10;99.90;;;;;;4930485;29;19927;-61
2022/08/08 04:57:41;;;;;;;;;;;13.10;99.90;;;;;;4927828;29;20481;-59
2022/08/08 05:00:09;;;;;;;;;;;13.10;99.90;;;;;;4915794;29;20272;-61
2022/08/08 05:02:37;;;;;;;;;;;13.20;99.90;;;;;;4888494;29;19943;-60
2022/08/08 05:05:10;;;;;;;;;;;13.20;99.90;;;;;;4892608;29;19927;-59
2022/08/08 05:07:47;;;;;;;;;;;13.20;99.90;;;;;;4913744;29;20413;-61
2022/08/08 05:10:16;;;;;;;;;;;13.20;99.90;;;;;;4926326;29;20402;-61
2022/08/08 05:12:45;;;;;;;;;;;13.20;99.90;;;;;;4911770;29;21020;-59
2022/08/08 05:15:31;;;;;;;;;;;13.30;99.90;;;;;;4914190;29;20403;-62
2022/08/08 05:18:18;;;;;;;;;;;13.30;99.90;;;;;;4905638;29;20380;-60
2022/08/08 05:20:49;;;;;;;;;;;13.30;99.90;;;;;;4910798;29;19931;-60
2022/08/08 05:23:20;;;;;;;;;;;13.40;99.90;;;;;;4906900;29;20542;-62
2022/08/08 05:25:48;;;;;;;;;;;13.40;99.90;;;;;;4914048;29;19927;-61
2022/08/08 05:28:18;;;;;;;;;;;13.40;99.90;;;;;;4913927;29;19927;-56
2022/08/08 05:31:07;;;;;;;;;;;13.50;99.90;;;;;;4913472;29;20279;-61
2022/08/08 05:33:55;;;;;;;;;;;13.50;99.90;;;;;;4914775;29;19935;-61
2022/08/08 05:36:24;;;;;;;;;;;13.60;99.90;;;;;;4876214;29;20414;-60
2022/08/08 05:38:57;;;;;;;;;;;13.60;99.90;;;;;;4907740;29;20351;-62
2022/08/08 05:41:26;;;;;;;;;;;13.70;99.90;;;;;;4910800;29;20302;-57
2022/08/08 05:44:10;;;;;;;;;;;13.70;99.90;;;;;;4913221;29;19938;-60
2022/08/08 05:46:42;;;;;;;;;;;13.70;99.90;;;;;;4913471;29;19931;-59
2022/08/08 05:49:18;;;;;;;;;;;13.70;99.90;;;;;;4899854;29;19932;-61
2022/08/08 05:51:46;;;;;;;;;;;13.80;99.90;;;;;;4910017;29;19927;-59
2022/08/08 05:54:19;;;;;;;;;;;13.80;99.90;;;;;;4924409;29;19934;-62
2022/08/08 05:57:11;;;;;;;;;;;13.80;99.90;;;;;;4929001;29;20558;-57
2022/08/08 05:59:45;;;;;;;;;;;13.90;99.90;;;;;;4913176;29;19935;-61
2022/08/08 06:05:34;;;;;;;;;;;13.90;99.90;;;;;;4891506;29;20151;-60
2022/08/08 06:08:11;;;;;;;;;;;13.90;99.90;;;;;;4918428;29;19934;-60
2022/08/08 06:11:03;;;;;;;;;;;14.00;99.90;;;;;;4913026;29;20295;-59
2022/08/08 06:13:31;;;;;;;;;;;14.00;99.90;;;;;;4912910;29;19927;-54
2022/08/08 06:16:15;;;;;;;;;;;14.10;99.90;;;;;;4912969;29;19934;-61
2022/08/08 06:18:59;;;;;;;;;;;14.20;99.90;;;;;;4888210;29;20570;-61
2022/08/08 06:21:30;;;;;;;;;;;14.20;99.90;;;;;;4894168;29;19931;-62
2022/08/08 06:24:17;;;;;;;;;;;14.30;99.90;;;;;;4923188;29;20291;-61
2022/08/08 06:27:02;;;;;;;;;;;14.40;99.90;;;;;;4928564;29;19927;-62
2022/08/08 06:29:38;;;;;;;;;;;14.50;99.90;;;;;;4912701;29;19934;-62
2022/08/08 06:32:29;;;;;;;;;;;14.50;99.90;;;;;;4909512;29;19934;-61
2022/08/08 06:35:03;;;;;;;;;;;14.60;99.90;;;;;;4893261;29;19927;-58
2022/08/08 06:37:59;;;;;;;;;;;14.60;99.90;;;;;;4903759;29;19931;-61
2022/08/08 06:40:32;;;;;;;;;;;14.60;99.90;;;;;;4912518;29;19934;-60
2022/08/08 06:43:13;;;;;;;;;;;14.60;99.90;;;;;;4928307;29;19934;-62
2022/08/08 06:45:53;;;;;;;;;;;14.60;99.90;;;;;;4928397;29;19927;-61
2022/08/08 06:48:22;;;;;;;;;;;14.60;99.90;;;;;;4912121;29;19931;-60
2022/08/08 06:50:56;;;;;;;;;;;14.70;99.90;;;;;;4912215;29;19931;-61
2022/08/08 06:53:26;;;;;;;;;;;14.70;99.90;;;;;;4918457;29;19939;-61
2022/08/08 06:56:13;;;;;;;;;;;14.80;99.90;;;;;;4912300;29;19947;-60
2022/08/08 06:58:43;;;;;;;;;;;14.80;99.90;;;;;;4911940;29;19927;-62
2022/08/08 07:01:14;;;;;;;;;;;14.90;99.90;;;;;;4911586;29;19938;-56
2022/08/08 07:04:10;;;;;;;;;;;14.90;99.90;;;;;;4921430;29;19931;-60
2022/08/08 07:07:02;;;;;;;;;;;15.10;99.90;;;;;;4906890;29;19931;-62
2022/08/08 07:09:41;;;;;;;;;;;15.20;99.90;;;;;;4894487;29;19934;-62
2022/08/08 07:12:48;;;;;;;;;;;15.30;99.90;;;;;;4894845;29;19931;-62
2022/08/08 07:15:44;;;;;;;;;;;15.60;99.90;;;;;;4908601;29;19931;-59
2022/08/08 07:18:32;;;;;;;;;;;15.80;99.90;;;;;;4911590;29;20387;-61
2022/08/08 07:21:12;;;;;;;;;;;16.10;99.90;;;;;;4911077;29;20319;-63
2022/08/08 07:24:12;;;;;;;;;;;16.40;99.90;;;;;;4895883;29;20407;-65
2022/08/08 07:26:50;;;;;;;;;;;16.60;99.90;;;;;;4911974;29;19927;-63
2022/08/08 07:29:21;;;;;;;;;;;16.80;99.90;;;;;;4911589;29;19927;-63
2022/08/08 07:32:11;;;;;;;;;;;17.10;99.90;;;;;;4911773;29;19931;-58
2022/08/08 07:34:51;;;;;;;;;;;17.30;99.90;;;;;;4907693;29;19927;-62
2022/08/08 07:37:30;;;;;;;;;;;17.40;99.90;;;;;;4896003;29;19927;-60
2022/08/08 07:40:24;;;;;;;;;;;17.50;99.90;;;;;;4911516;29;19934;-61
2022/08/08 07:42:59;;;;;;;;;;;17.60;99.90;;;;;;4926798;29;19949;-63
2022/08/08 07:45:27;;;;;;;;;;;17.60;99.90;;;;;;4912495;29;19934;-62
2022/08/08 07:48:15;;;;;;;;;;;17.60;99.90;;;;;;4911396;29;19934;-63
2022/08/08 07:50:45;;;;;;;;;;;17.60;99.90;;;;;;4892036;29;19934;-63
2022/08/08 07:53:33;;;;;;;;;;;17.60;99.90;;;;;;4902971;29;19934;-63
2022/08/08 07:56:23;;;;;;;;;;;17.60;99.90;;;;;;4927279;29;19927;-62
2022/08/08 07:59:09;;;;;;;;;;;17.70;99.90;;;;;;4911261;29;19931;-63
2022/08/08 08:01:37;;;;;;;;;;;17.70;99.90;;;;;;4912420;29;19959;-60
2022/08/08 08:04:31;;;;;;;;;;;17.80;99.90;;;;;;4908397;29;19931;-63
2022/08/08 08:07:07;;;;;;;;;;;18.00;99.90;;;;;;4892598;29;19938;-57
2022/08/08 08:09:37;;;;;;;;;;;18.20;99.90;;;;;;4911406;29;19938;-63
2022/08/08 08:12:09;;;;;;;;;;;18.30;99.90;;;;;;4911331;29;19934;-62
2022/08/08 08:15:01;;;;;;;;;;;18.50;99.90;;;;;;4898111;29;20323;-63
2022/08/08 08:17:36;;;;;;;;;;;18.60;99.90;;;;;;4911130;29;19938;-61
2022/08/08 08:20:22;;;;;;;;;;;18.80;99.90;;;;;;4899727;29;19935;-63
2022/08/08 08:22:58;;;;;;;;;;;19.00;99.90;;;;;;4900311;29;19927;-63
2022/08/08 08:25:26;;;;;;;;;;;19.20;99.90;;;;;;4911226;29;19931;-62
2022/08/08 08:28:14;;;;;;;;;;;19.30;99.90;;;;;;4912178;29;19927;-63
2022/08/08 08:30:48;;;;;;;;;;;19.40;99.90;;;;;;4910959;29;20303;-62
2022/08/08 08:33:17;;;;;;;;;;;19.50;99.90;;;;;;4911152;29;19927;-63
2022/08/08 08:35:47;;;;;;;;;;;19.60;99.90;;;;;;4923883;29;19934;-64
2022/08/08 08:38:36;;;;;;;;;;;19.60;99.90;;;;;;4903800;29;19938;-63
2022/08/08 08:41:12;;;;;;;;;;;19.70;99.90;;;;;;4911026;29;19931;-57
2022/08/08 08:43:49;;;;;;;;;;;19.80;99.90;;;;;;4911923;29;19931;-58
2022/08/08 08:46:19;;;;;;;;;;;19.80;99.90;;;;;;4911155;29;19927;-57
2022/08/08 08:48:53;;;;;;;;;;;19.90;99.90;;;;;;4915525;29;19942;-57
2022/08/08 08:51:24;;;;;;;;;;;19.90;99.90;;;;;;4910985;29;20372;-57
2022/08/08 08:53:55;;;;;;;;;;;19.80;99.90;;;;;;4910782;29;19927;-57
2022/08/08 08:56:31;;;;;;;;;;;19.90;99.90;;;;;;4914480;29;19942;-62
2022/08/08 08:59:06;;;;;;;;;;;19.90;99.90;;;;;;4913934;29;20318;-62
2022/08/08 09:01:49;;;;;;;;;;;19.90;99.90;;;;;;4914302;29;19938;-61
2022/08/08 09:04:22;;;;;;;;;;;20.00;99.90;;;;;;4914142;29;19958;-62
2022/08/08 09:07:01;;;;;;;;;;;20.10;99.90;;;;;;4930236;29;19927;-58
2022/08/08 09:09:39;;;;;;;;;;;20.10;99.90;;;;;;4914134;29;19927;-58
2022/08/08 09:12:24;;;;;;;;;;;20.20;99.90;;;;;;4910821;29;19927;-57
2022/08/08 09:14:57;;;;;;;;;;;20.20;99.90;;;;;;4910801;29;19927;-57
2022/08/08 09:17:31;;;;;;;;;;;20.20;99.90;;;;;;4913205;29;19927;-59
2022/08/08 09:20:22;;;;;;;;;;;20.30;99.90;;;;;;4926711;29;19938;-58
2022/08/08 09:23:11;;;;;;;;;;;20.30;99.90;;;;;;4904785;29;20235;-57
2022/08/08 09:25:58;;;;;;;;;;;20.30;99.90;;;;;;4914138;29;19954;-61
2022/08/08 09:28:37;;;;;;;;;;;20.20;99.90;;;;;;4913526;29;19931;-57
2022/08/08 09:31:43;;;;;;;;;;;20.10;99.90;;;;;;4914941;29;19927;-59
2022/08/08 09:34:30;;;;;;;;;;;20.10;99.90;;;;;;4909430;29;20391;-56
2022/08/08 09:37:09;;;;;;;;;;;20.20;99.90;;;;;;4894807;29;19928;-57
2022/08/08 09:40:00;;;;;;;;;;;20.20;99.90;;;;;;4910599;29;19944;-58
2022/08/08 09:42:36;;;;;;;;;;;20.20;99.90;;;;;;4914649;29;19934;-57
2022/08/08 09:45:20;;;;;;;;;;;20.20;99.90;;;;;;4895822;29;19931;-57
2022/08/08 09:48:09;;;;;;;;;;;20.30;99.90;;;;;;4902776;29;19938;-57
2022/08/08 09:50:52;;;;;;;;;;;20.30;99.90;;;;;;4914458;29;19950;-57
2022/08/08 09:53:26;;;;;;;;;;;20.00;99.90;;;;;;4913467;29;20288;-57
2022/08/08 09:56:16;;;;;;;;;;;20.30;99.90;;;;;;4915032;29;20690;-57
2022/08/08 09:59:04;;;;;;;;;;;20.30;99.90;;;;;;4913392;29;19927;-65
2022/08/08 10:01:52;;;;;;;;;;;20.40;99.90;;;;;;4914580;29;20274;-62
2022/08/08 10:04:26;;;;;;;;;;;20.50;99.90;;;;;;4914337;29;20286;-62
2022/08/08 10:07:14;;;;;;;;;;;20.60;99.90;;;;;;4893036;29;20451;-61
2022/08/08 10:09:48;;;;;;;;;;;20.90;99.90;;;;;;4911271;29;19927;-62
2022/08/08 10:12:31;;;;;;;;;;;21.20;99.90;;;;;;4911414;29;19931;-61
2022/08/08 10:15:19;;;;;;;;;;;21.40;99.90;;;;;;4913241;29;19927;-65
2022/08/08 10:17:48;;;;;;;;;;;21.70;99.90;;;;;;4914246;29;19935;-59
2022/08/08 10:20:53;;;;;;;;;;;22.00;99.90;;;;;;4913275;29;20379;-59
2022/08/08 10:23:41;;;;;;;;;;;22.20;99.90;;;;;;4913778;29;19931;-61
2022/08/08 10:26:26;;;;;;;;;;;22.50;99.90;;;;;;4914214;29;19934;-63
2022/08/08 10:29:13;;;;;;;;;;;22.80;99.90;;;;;;4913745;29;19927;-64
2022/08/08 10:34:37;;;;;;;;;;;23.20;99.90;;;;;;4913802;29;20032;-64
2022/08/08 10:37:05;;;;;;;;;;;23.30;99.90;;;;;;4897706;29;19928;-63
2022/08/08 10:39:42;;;;;;;;;;;23.20;99.90;;;;;;4894799;29;19950;-61
2022/08/08 10:42:23;;;;;;;;;;;23.00;99.90;;;;;;4896529;29;19931;-57
2022/08/08 10:44:59;;;;;;;;;;;22.80;99.90;;;;;;4913280;29;19927;-57
2022/08/08 10:47:27;;;;;;;;;;;22.70;99.90;;;;;;4913517;29;19962;-63
2022/08/08 10:50:10;;;;;;;;;;;22.80;99.90;;;;;;4913039;29;19931;-58
2022/08/08 10:52:42;;;;;;;;;;;23.00;99.90;;;;;;4900085;29;19934;-60
2022/08/08 10:55:14;;;;;;;;;;;23.10;99.90;;;;;;4913613;29;19935;-62
2022/08/08 10:58:02;;;;;;;;;;;23.20;99.00;;;;;;4927963;29;19934;-63
2022/08/08 11:00:33;;;;;;;;;;;23.50;99.00;;;;;;4913391;29;19934;-62
2022/08/08 11:03:20;;;;;;;;;;;23.70;98.80;;;;;;4912911;29;19938;-59
2022/08/08 11:06:07;;;;;;;;;;;24.10;98.90;;;;;;4913715;29;19928;-61
2022/08/08 11:08:40;;;;;;;;;;;24.20;97.40;;;;;;4911717;29;19950;-62
2022/08/08 11:11:20;;;;;;;;;;;24.20;97.30;;;;;;4913078;29;20427;-61
2022/08/08 11:14:09;;;;;;;;;;;24.20;96.00;;;;;;4912997;29;19938;-62
2022/08/08 11:16:44;;;;;;;;;;;24.00;95.80;;;;;;4927896;29;19927;-58
2022/08/08 11:19:13;;;;;;;;;;;23.70;96.10;;;;;;4913198;29;20295;-61
2022/08/08 11:21:46;;;;;;;;;;;23.50;96.00;;;;;;4912993;29;19927;-57
2022/08/08 11:24:25;;;;;;;;;;;23.20;96.60;;;;;;4912838;29;19931;-57
2022/08/08 11:26:54;;;;;;;;;;;23.00;97.10;;;;;;4912829;29;19949;-57
2022/08/08 11:29:25;;;;;;;;;;;22.90;97.60;;;;;;4912460;29;19927;-63
2022/08/08 11:32:14;;;;;;;;;;;22.80;97.90;;;;;;4912690;29;20383;-60
2022/08/08 11:34:45;;;;;;;;;;;22.80;97.10;;;;;;4912448;29;19927;-63
2022/08/08 11:37:33;;;;;;;;;;;22.80;97.10;;;;;;4898278;29;19938;-56
2022/08/08 11:40:20;;;;;;;;;;;22.90;97.30;;;;;;4912787;29;19927;-62
2022/08/08 11:42:53;;;;;;;;;;;23.10;96.80;;;;;;4912344;29;19927;-57
2022/08/08 11:45:21;;;;;;;;;;;23.20;96.90;;;;;;4912625;29;20368;-57
2022/08/08 11:47:50;;;;;;;;;;;23.30;96.20;;;;;;4912431;29;19928;-61
2022/08/08 11:50:31;;;;;;;;;;;23.60;96.00;;;;;;4911885;29;19927;-58
2022/08/08 11:53:01;;;;;;;;;;;24.00;96.10;;;;;;4901424;29;19935;-60
2022/08/08 11:55:34;;;;;;;;;;;24.40;95.40;;;;;;4912665;29;20276;-58
2022/08/08 11:58:07;;;;;;;;;;;24.80;93.90;;;;;;4910738;29;19942;-58
2022/08/08 12:00:52;;;;;;;;;;;25.20;94.00;;;;;;4909466;29;19946;-63
2022/08/08 12:03:20;;;;;;;;;;;25.40;93.20;;;;;;4911346;29;20417;-63
2022/08/08 12:05:47;;;;;;;;;;;25.50;93.30;;;;;;4912286;29;20283;-63
2022/08/08 12:08:16;;;;;;;;;;;25.90;93.40;;;;;;4902215;29;19928;-61
2022/08/08 12:10:48;;;;;;;;;;;26.30;93.30;;;;;;4912370;29;20480;-60
2022/08/08 12:13:22;;;;;;;;;;;26.70;91.00;;;;;;4912122;29;19927;-61
2022/08/08 12:16:11;;;;;;;;;;;27.00;90.80;;;;;;4912336;29;19931;-62
2022/08/08 12:18:45;;;;;;;;;;;27.30;90.10;;;;;;4912207;29;19938;-62
2022/08/08 12:21:19;;;;;;;;;;;27.60;90.30;;;;;;4911194;29;20311;-60
2022/08/08 12:24:02;;;;;;;;;;;28.00;88.70;;;;;;4915916;29;19938;-63
2022/08/08 12:26:37;;;;;;;;;;;28.40;87.60;;;;;;4916384;29;19927;-61
2022/08/08 12:29:21;;;;;;;;;;;28.90;85.80;;;;;;4915865;29;19927;-63
2022/08/08 12:32:11;;;;;;;;;;;29.20;84.70;;;;;;4916050;29;20398;-59
2022/08/08 12:34:55;;;;;;;;;;;29.60;83.20;;;;;;4914710;29;20426;-63
2022/08/08 12:37:40;;;;;;;;;;;29.90;77.20;;;;;;4915828;29;19927;-60
2022/08/08 12:40:15;;;;;;;;;;;29.60;77.30;;;;;;4915776;29;20315;-62
2022/08/08 12:42:50;;;;;;;;;;;28.90;76.70;;;;;;4915574;29;19934;-63
2022/08/08 12:45:18;;;;;;;;;;;28.30;77.20;;;;;;4916115;29;20402;-63
2022/08/08 12:48:26;;;;;;;;;;;27.70;77.30;;;;;;4915553;29;19927;-62
2022/08/08 12:51:05;;;;;;;;;;;27.20;78.10;;;;;;4915265;29;20395;-62
2022/08/08 12:53:43;;;;;;;;;;;27.30;80.00;;;;;;4908821;29;19938;-62
2022/08/08 12:56:13;;;;;;;;;;;27.70;77.30;;;;;;4915910;29;20303;-62
2022/08/08 12:58:50;;;;;;;;;;;28.10;77.80;;;;;;4915517;29;19931;-61
2022/08/08 13:01:32;;;;;;;;;;;28.60;76.10;;;;;;4915535;29;19931;-62
2022/08/08 13:04:13;;;;;;;;;;;29.00;76.50;;;;;;4915481;29;19927;-63
2022/08/08 13:07:00;;;;;;;;;;;29.50;72.40;;;;;;4915629;29;20323;-63
2022/08/08 13:09:32;;;;;;;;;;;29.90;68.40;;;;;;4915363;29;19938;-63
2022/08/08 13:12:25;;;;;;;;;;;30.10;68.10;;;;;;4927598;29;20310;-62
2022/08/08 13:15:08;;;;;;;;;;;30.60;68.20;;;;;;4915069;29;20299;-63
2022/08/08 13:17:35;;;;;;;;;;;31.10;64.70;;;;;;4915177;29;20303;-63
2022/08/08 13:20:23;;;;;;;;;;;31.00;64.50;;;;;;4915291;29;20410;-62
2022/08/08 13:22:55;;;;;;;;;;;30.80;65.00;;;;;;4914633;29;19927;-62
2022/08/08 13:25:42;;;;;;;;;;;30.70;65.80;;;;;;4915020;29;20394;-61
2022/08/08 13:28:26;;;;;;;;;;;30.70;64.80;;;;;;4914712;29;19927;-60
2022/08/08 13:30:55;;;;;;;;;;;30.40;63.20;;;;;;4915293;29;20421;-63
2022/08/08 13:33:23;;;;;;;;;;;30.20;64.40;;;;;;4914507;29;19946;-63
2022/08/08 13:35:54;;;;;;;;;;;30.30;63.80;;;;;;4914823;29;19927;-62
2022/08/08 13:38:23;;;;;;;;;;;30.40;64.80;;;;;;4914717;29;19933;-61
2022/08/08 13:40:54;;;;;;;;;;;30.70;64.90;;;;;;4928879;29;19931;-63
2022/08/08 13:43:22;;;;;;;;;;;31.00;64.60;;;;;;4914489;29;19927;-63
2022/08/08 13:45:52;;;;;;;;;;;31.30;63.60;;;;;;4914563;29;19934;-61
2022/08/08 13:48:20;;;;;;;;;;;31.60;63.20;;;;;;4914588;29;19934;-63
2022/08/08 13:50:52;;;;;;;;;;;31.80;63.00;;;;;;4914478;29;19927;-61
2022/08/08 13:53:26;;;;;;;;;;;31.80;63.00;;;;;;4914376;29;19931;-62
2022/08/08 13:55:57;;;;;;;;;;;31.90;62.20;;;;;;4913466;29;19927;-63
2022/08/08 13:58:27;;;;;;;;;;;31.90;61.20;;;;;;4914622;29;19927;-62
2022/08/08 14:00:56;;;;;;;;;;;31.90;60.10;;;;;;4914561;29;19927;-63
2022/08/08 14:03:24;;;;;;;;;;;32.00;60.70;;;;;;4914003;29;19927;-62
2022/08/08 14:06:12;;;;;;;;;;;31.90;60.00;;;;;;4913931;29;19931;-62
2022/08/08 14:09:00;;;;;;;;;;;31.90;60.00;;;;;;4907281;29;19957;-62
2022/08/08 14:11:47;;;;;;;;;;;32.00;60.10;;;;;;4912261;29;19927;-59
2022/08/08 14:14:15;;;;;;;;;;;32.10;60.10;;;;;;4914055;29;19943;-62
2022/08/08 14:16:52;;;;;;;;;;;32.20;58.30;;;;;;4914161;29;19927;-63
2022/08/08 14:19:34;;;;;;;;;;;32.10;58.60;;;;;;4912734;29;19927;-63
2022/08/08 14:22:22;;;;;;;;;;;31.90;58.70;;;;;;4913932;29;19927;-63
2022/08/08 14:24:54;;;;;;;;;;;31.40;58.80;;;;;;4913714;29;19931;-60
2022/08/08 14:27:25;;;;;;;;;;;31.00;59.10;;;;;;4912454;29;19943;-62
2022/08/08 14:29:55;;;;;;;;;;;30.60;60.10;;;;;;4914015;29;19934;-63
2022/08/08 14:32:24;;;;;;;;;;;30.40;60.60;;;;;;4912764;29;19935;-61
2022/08/08 14:35:06;;;;;;;;;;;30.30;60.30;;;;;;4913374;29;19932;-61
2022/08/08 14:37:38;;;;;;;;;;;30.30;61.40;;;;;;4913598;29;20411;-62
2022/08/08 14:40:25;;;;;;;;;;;30.60;60.90;;;;;;4913876;29;19935;-61
2022/08/08 14:42:53;;;;;;;;;;;30.70;60.70;;;;;;4913581;29;19927;-62
2022/08/08 14:45:28;;;;;;;;;;;30.80;59.50;;;;;;4913263;29;19927;-62
2022/08/08 14:48:16;;;;;;;;;;;31.00;59.60;;;;;;4912206;29;20318;-62
2022/08/08 14:51:04;;;;;;;;;;;31.20;59.90;;;;;;4913524;29;19931;-61
2022/08/08 14:53:34;;;;;;;;;;;31.10;58.60;;;;;;4912883;29;19931;-57
2022/08/08 14:56:03;;;;;;;;;;;31.20;58.70;;;;;;4913494;29;19934;-63
2022/08/08 14:58:32;;;;;;;;;;;31.30;58.80;;;;;;4913262;29;19931;-61
2022/08/08 15:01:00;;;;;;;;;;;31.50;58.60;;;;;;4913186;29;20303;-60
2022/08/08 15:03:35;;;;;;;;;;;31.80;58.00;;;;;;4911808;29;20306;-64
2022/08/08 15:06:19;;;;;;;;;;;32.10;57.70;;;;;;4913528;29;19954;-63
2022/08/08 15:08:48;;;;;;;;;;;32.30;56.80;;;;;;4912876;29;19939;-62
2022/08/08 15:11:21;;;;;;;;;;;32.50;57.30;;;;;;4912211;29;19934;-63
2022/08/08 15:13:49;;;;;;;;;;;32.60;57.80;;;;;;4912858;29;19927;-61
2022/08/08 15:16:29;;;;;;;;;;;32.80;57.80;;;;;;4913187;29;19931;-61
2022/08/08 15:19:02;;;;;;;;;;;33.00;57.50;;;;;;4926983;29;19938;-61
2022/08/08 15:21:29;;;;;;;;;;;33.30;57.50;;;;;;4913091;29;19927;-63
2022/08/08 15:23:57;;;;;;;;;;;33.30;56.40;;;;;;4912465;29;19927;-63
2022/08/08 15:26:25;;;;;;;;;;;33.30;56.20;;;;;;4913034;29;19934;-62
2022/08/08 15:28:56;;;;;;;;;;;33.30;55.80;;;;;;4912634;29;19935;-62
2022/08/08 15:31:23;;;;;;;;;;;33.40;56.60;;;;;;4913069;29;19931;-64
2022/08/08 15:34:10;;;;;;;;;;;33.50;56.30;;;;;;4912653;29;19931;-62
2022/08/08 15:36:58;;;;;;;;;;;33.50;55.50;;;;;;4912837;29;19927;-63
2022/08/08 15:39:31;;;;;;;;;;;33.50;55.90;;;;;;4912695;29;20395;-61